Time;durP1;ratioP1;P1;durP2;ratioP2;P2;SDS_P1;SDS_P2;PMS_P1;PMS_P2;Temp;Humidity;BMP_temperature;BMP_pressure;BME280_temperature;BME280_humidity;BME280_pressure;Samples;Min_cycle;Max_cycle;Signal;HPM_P1;HPM_P2
2022/05/13 00:01:53;;;;;;;;;0.50;0.50;;;;;16.22;45.70;101460.84;6271100;22;45548;-76
2022/05/13 00:04:19;;;;;;;;;0.50;0.25;;;;;16.16;45.47;101453.41;6270587;22;46610;-77
2022/05/13 00:06:45;;;;;;;;;1.00;0.00;;;;;16.18;45.28;101467.38;6271158;22;45903;-78
2022/05/13 00:09:11;;;;;;;;;1.25;0.50;;;;;16.14;44.90;101453.53;6271214;22;45608;-78
2022/05/13 00:11:37;;;;;;;;;0.75;0.00;;;;;16.12;45.02;101455.47;6271883;22;45758;-77
2022/05/13 00:14:03;;;;;;;;;0.00;0.00;;;;;16.12;45.18;101460.75;6272182;22;45602;-78
2022/05/13 00:16:29;;;;;;;;;0.50;0.50;;;;;16.10;45.02;101453.91;6272241;22;45908;-77
2022/05/13 00:18:54;;;;;;;;;1.00;0.00;;;;;16.07;44.74;101457.66;6272411;22;45666;-79
2022/05/13 00:24:41;;;;;;;;;1.00;1.00;;;;;16.08;45.13;101454.06;6271696;22;45590;-77
2022/05/13 00:27:07;;;;;;;;;0.00;0.00;;;;;16.05;45.31;101456.09;6272446;22;46479;-77
2022/05/13 00:29:33;;;;;;;;;0.00;0.00;;;;;16.05;45.32;101454.28;6272088;22;45647;-76
2022/05/13 00:31:59;;;;;;;;;0.00;0.00;;;;;16.02;45.48;101457.19;6272669;22;45539;-77
2022/05/13 00:34:24;;;;;;;;;0.25;0.00;;;;;16.02;45.61;101449.25;6272105;22;46526;-77
2022/05/13 00:40:12;;;;;;;;;0.00;0.00;;;;;16.03;45.44;101460.66;6271674;22;45492;-78
2022/05/13 00:42:38;;;;;;;;;0.50;0.00;;;;;15.97;45.19;101462.00;6271615;22;45849;-78
2022/05/13 00:45:05;;;;;;;;;0.00;0.00;;;;;15.97;44.69;101462.00;6271961;22;46525;-78
2022/05/13 00:47:30;;;;;;;;;1.00;0.75;;;;;15.90;44.91;101459.00;6271737;22;45766;-77
2022/05/13 00:49:59;;;;;;;;;0.00;0.00;;;;;15.87;44.55;101447.84;6272223;22;45590;-78
2022/05/13 00:52:26;;;;;;;;;0.50;0.00;;;;;15.84;44.08;101442.78;6272277;22;45705;-78
2022/05/13 00:54:53;;;;;;;;;0.00;0.00;;;;;15.82;44.35;101448.19;6271390;22;46352;-79
2022/05/13 00:57:21;;;;;;;;;0.00;0.00;;;;;15.79;44.30;101448.44;6243867;22;46648;-78
2022/05/13 00:59:49;;;;;;;;;0.75;0.00;;;;;15.71;44.11;101442.91;6271283;22;45483;-77
2022/05/13 01:02:15;;;;;;;;;1.00;0.00;;;;;15.73;44.74;101461.28;6271038;22;45483;-77
2022/05/13 01:04:42;;;;;;;;;0.00;0.00;;;;;15.71;44.19;101452.66;6271907;22;45692;-78
2022/05/13 01:07:19;;;;;;;;;0.25;0.00;;;;;15.65;44.09;101461.06;6271967;22;45649;-75
2022/05/13 01:09:53;;;;;;;;;1.00;0.00;;;;;15.59;44.43;101461.56;6272068;22;45504;-77
2022/05/13 01:12:22;;;;;;;;;0.00;0.00;;;;;15.60;44.25;101477.25;6271999;22;45898;-77
2022/05/13 01:14:55;;;;;;;;;0.25;0.00;;;;;15.57;44.54;101466.94;6271814;22;46688;-77
2022/05/13 01:20:12;;;;;;;;;0.00;0.00;;;;;15.41;44.75;101453.22;6271470;22;45713;-75
2022/05/13 01:22:42;;;;;;;;;1.00;1.00;;;;;15.39;44.96;101466.53;6271950;22;45924;-78
2022/05/13 01:25:08;;;;;;;;;0.00;0.00;;;;;15.36;45.37;101468.59;6271577;22;46318;-77
2022/05/13 01:27:33;;;;;;;;;1.00;0.00;;;;;15.35;45.51;101467.75;6271865;22;45827;-77
2022/05/13 01:29:59;;;;;;;;;0.00;0.00;;;;;15.36;46.05;101458.03;6272217;22;45472;-78
2022/05/13 01:32:24;;;;;;;;;0.00;0.00;;;;;15.37;45.56;101463.19;6271954;22;45589;-76
2022/05/13 01:34:50;;;;;;;;;0.00;0.00;;;;;15.39;45.94;101463.06;6271590;22;45665;-76
2022/05/13 01:40:37;;;;;;;;;0.00;0.00;;;;;15.42;45.89;101473.41;6271581;22;45605;-77
2022/05/13 01:43:03;;;;;;;;;0.75;0.00;;;;;15.42;46.01;101474.25;6271776;22;45485;-76
2022/05/13 01:45:29;;;;;;;;;0.00;0.00;;;;;15.43;46.07;101470.63;6271636;22;45579;-77
2022/05/13 01:47:54;;;;;;;;;1.25;1.00;;;;;15.41;46.35;101458.50;6271861;22;45811;-76
2022/05/13 01:50:22;;;;;;;;;2.00;0.00;;;;;15.39;46.58;101463.88;6271468;22;45561;-77
2022/05/13 01:52:47;;;;;;;;;1.75;0.00;;;;;15.37;46.77;101471.13;6243949;22;45784;-77
2022/05/13 01:55:12;;;;;;;;;3.25;0.25;;;;;15.34;46.88;101457.28;6271043;22;45615;-75
2022/05/13 01:57:38;;;;;;;;;0.75;0.75;;;;;15.31;47.54;101458.38;6271629;22;45603;-78
2022/05/13 02:00:04;;;;;;;;;1.00;0.50;;;;;15.31;47.45;101466.31;6271665;22;45542;-77
2022/05/13 02:03:43;;;;;;;;;1.00;0.00;;;;;15.32;47.20;101461.88;6271318;22;45746;-77
2022/05/13 02:05:15;;;;;;;;;0.75;0.75;;;;;15.28;47.29;101449.84;6270697;22;46256;-76
2022/05/13 02:07:40;;;;;;;;;1.25;1.00;;;;;15.31;47.65;101452.25;6271655;22;45822;-76
2022/05/13 02:10:06;;;;;;;;;1.50;1.00;;;;;15.33;47.99;101458.28;6271787;22;45771;-76
2022/05/13 02:12:32;;;;;;;;;1.00;1.00;;;;;15.30;47.94;101455.84;6271808;22;45693;-77
2022/05/13 02:14:57;;;;;;;;;2.25;1.00;;;;;15.28;48.39;101463.03;6271516;22;45495;-77
2022/05/13 02:17:22;;;;;;;;;1.00;1.00;;;;;15.22;48.64;101445.06;6271732;22;45464;-79
2022/05/13 02:19:48;;;;;;;;;2.00;1.25;;;;;15.24;48.11;101456.31;6271540;22;45480;-76
2022/05/13 02:25:35;;;;;;;;;1.00;0.50;;;;;15.17;48.71;101460.41;6270968;22;45895;-77
2022/05/13 02:28:02;;;;;;;;;1.25;1.00;;;;;15.16;48.90;101464.84;6271702;22;46225;-76
2022/05/13 02:30:28;;;;;;;;;3.25;1.00;;;;;15.10;48.72;101458.22;6271976;22;45574;-76
2022/05/13 02:32:54;;;;;;;;;2.00;2.00;;;;;15.03;48.68;101459.66;6271303;22;45849;-78
2022/05/13 02:35:20;;;;;;;;;1.00;1.00;;;;;15.05;48.76;101462.19;6270999;22;46915;-77
2022/05/13 02:37:46;;;;;;;;;0.25;0.00;;;;;15.01;48.80;101464.19;6271541;22;46431;-76
2022/05/13 02:40:13;;;;;;;;;2.00;2.00;;;;;15.03;48.84;101464.09;6271457;22;45405;-76
2022/05/13 02:42:38;;;;;;;;;4.00;1.00;;;;;15.05;49.08;101470.09;6271597;22;45552;-76
2022/05/13 02:45:08;;;;;;;;;1.00;1.00;;;;;15.03;49.13;101466.72;6271415;22;46676;-76
2022/05/13 02:47:33;;;;;;;;;1.50;1.00;;;;;15.02;49.05;101475.59;6271615;22;46077;-77
2022/05/13 02:56:06;;;;;;;;;2.00;1.00;;;;;14.98;49.68;101471.50;6265915;22;45860;-77
2022/05/13 02:58:31;;;;;;;;;1.00;1.00;;;;;15.00;49.29;101470.44;6271598;22;46011;-73
2022/05/13 03:00:57;;;;;;;;;0.75;0.25;;;;;14.96;49.71;101463.69;6271722;22;45580;-77
2022/05/13 03:03:22;;;;;;;;;1.75;1.00;;;;;14.93;49.57;101469.22;6271646;22;45694;-76
2022/05/13 03:05:48;;;;;;;;;0.50;0.50;;;;;14.92;49.48;101461.41;6271103;22;46589;-76
2022/05/13 03:08:14;;;;;;;;;2.00;1.25;;;;;14.86;49.65;101453.97;6271357;22;45531;-77
2022/05/13 03:10:39;;;;;;;;;1.00;1.00;;;;;14.88;49.65;101471.38;6243260;22;45627;-76
2022/05/13 03:13:06;;;;;;;;;1.00;1.00;;;;;14.82;49.70;101463.91;6271608;22;45646;-76
2022/05/13 03:15:33;;;;;;;;;2.50;1.50;;;;;14.83;49.42;101470.03;6242950;22;46868;-77
2022/05/13 03:17:58;;;;;;;;;1.25;1.25;;;;;14.79;49.80;101473.88;6271531;22;46226;-76
2022/05/13 03:20:25;;;;;;;;;2.00;2.00;;;;;14.72;49.76;101455.00;6271763;22;45879;-76
2022/05/13 03:26:14;;;;;;;;;1.00;1.00;;;;;14.68;50.16;101456.19;6270471;22;45501;-77
2022/05/13 03:28:39;;;;;;;;;3.25;1.00;;;;;14.65;50.42;101464.31;6271540;22;46252;-75
2022/05/13 03:31:04;;;;;;;;;3.25;1.50;;;;;14.62;50.27;101469.84;6271149;22;45750;-77
2022/05/13 03:33:30;;;;;;;;;3.50;2.00;;;;;14.63;50.54;101460.94;6271508;22;45606;-77
2022/05/13 03:35:56;;;;;;;;;3.00;2.00;;;;;14.61;50.53;101463.72;6271272;22;46629;-77
2022/05/13 03:38:22;;;;;;;;;3.75;2.00;;;;;14.58;50.93;101458.66;6271214;22;45634;-76
2022/05/13 03:40:48;;;;;;;;;3.25;2.25;;;;;14.50;50.94;101447.84;6271313;22;45465;-75
2022/05/13 03:43:14;;;;;;;;;3.00;2.00;;;;;14.57;51.00;101462.28;6271271;22;45462;-76
2022/05/13 03:45:40;;;;;;;;;3.00;1.25;;;;;14.47;50.88;101453.34;6270136;22;46803;-76
2022/05/13 03:48:06;;;;;;;;;4.00;2.00;;;;;14.54;51.20;101472.19;6270903;22;46066;-75
2022/05/13 03:50:34;;;;;;;;;2.50;2.50;;;;;14.54;51.58;101475.66;6271161;22;45566;-76
2022/05/13 03:56:21;;;;;;;;;2.50;2.00;;;;;14.44;51.55;101471.19;6267031;22;45447;-76
2022/05/13 03:58:47;;;;;;;;;2.00;1.50;;;;;14.42;51.69;101470.44;6270911;22;46134;-77
2022/05/13 04:01:12;;;;;;;;;2.00;2.00;;;;;14.41;51.71;101471.44;6271217;22;45654;-77
2022/05/13 04:03:38;;;;;;;;;3.00;2.00;;;;;14.37;51.53;101460.25;6271014;22;45576;-76
2022/05/13 04:08:56;;;;;;;;;1.75;1.75;;;;;14.34;51.99;101470.16;6270745;22;45686;-76
2022/05/13 04:11:36;;;;;;;;;2.00;1.50;;;;;14.37;51.60;101476.06;6270791;22;45666;-77
2022/05/13 04:16:50;;;;;;;;;2.00;1.25;;;;;14.30;51.85;101470.34;6270467;22;45503;-77
2022/05/13 04:19:15;;;;;;;;;2.00;1.25;;;;;14.37;52.05;101476.06;6271085;22;45488;-76
2022/05/13 04:21:41;;;;;;;;;2.75;1.00;;;;;14.37;52.06;101477.84;6270603;22;45454;-76
2022/05/13 04:24:10;;;;;;;;;2.00;1.00;;;;;14.39;51.67;101479.44;6270189;22;45561;-76
2022/05/13 04:26:35;;;;;;;;;3.00;2.25;;;;;14.42;52.16;101486.25;6270718;22;46260;-77
2022/05/13 04:29:02;;;;;;;;;2.00;2.00;;;;;14.41;51.62;101481.97;6270880;22;45580;-76
2022/05/13 04:31:30;;;;;;;;;4.50;3.00;;;;;14.40;52.08;101481.13;6270554;22;45501;-77
2022/05/13 04:33:56;;;;;;;;;3.50;2.25;;;;;14.42;52.13;101484.47;6242933;22;45826;-76
2022/05/13 04:36:23;;;;;;;;;2.75;2.50;;;;;14.43;52.58;101485.31;6270611;22;45587;-77
2022/05/13 04:38:49;;;;;;;;;2.25;2.25;;;;;14.44;52.48;101484.38;6270500;22;45678;-75
2022/05/13 04:44:01;;;;;;;;;3.75;3.00;;;;;14.40;52.99;101494.31;6270295;22;45477;-76
2022/05/13 04:46:33;;;;;;;;;3.00;2.00;;;;;14.38;53.12;101488.28;6242732;22;49079;-79
2022/05/13 04:49:04;;;;;;;;;3.00;3.00;;;;;14.35;53.32;101483.22;6269956;22;46333;-75
2022/05/13 04:51:36;;;;;;;;;5.75;3.00;;;;;14.33;53.43;101490.41;6269825;22;45597;-76
2022/05/13 04:54:02;;;;;;;;;4.00;2.00;;;;;14.34;53.60;101492.09;6270697;22;45650;-76
2022/05/13 04:56:29;;;;;;;;;2.00;2.00;;;;;14.32;53.66;101501.03;6269423;22;47743;-76
2022/05/13 04:58:55;;;;;;;;;2.25;2.00;;;;;14.26;53.82;101490.00;6271901;22;45330;-76
2022/05/13 05:01:21;;;;;;;;;4.00;3.00;;;;;14.28;54.33;101501.28;6243484;22;45847;-77
2022/05/13 05:03:47;;;;;;;;;3.00;2.00;;;;;14.28;54.47;101503.06;6272013;22;45726;-77
2022/05/13 05:06:14;;;;;;;;;3.00;2.25;;;;;14.26;54.52;101504.97;6271877;22;45631;-76
2022/05/13 05:12:01;;;;;;;;;2.00;1.00;;;;;14.20;54.80;101523.84;6271606;22;45551;-76
2022/05/13 05:14:27;;;;;;;;;3.00;2.00;;;;;14.16;54.63;101515.34;6271928;22;45683;-78
2022/05/13 05:16:53;;;;;;;;;5.25;4.00;;;;;14.18;55.20;101525.78;6272262;22;46540;-76
2022/05/13 05:19:18;;;;;;;;;2.00;2.00;;;;;14.15;55.20;101523.34;6271755;22;46240;-78
2022/05/13 05:21:44;;;;;;;;;3.00;2.00;;;;;14.18;55.34;101528.41;6271563;22;45822;-77
2022/05/13 05:24:10;;;;;;;;;0.25;0.00;;;;;14.19;54.78;101525.66;6242380;22;45844;-77
2022/05/13 05:26:37;;;;;;;;;3.00;2.25;;;;;14.12;55.27;101524.41;6271489;22;45805;-77
2022/05/13 05:29:02;;;;;;;;;3.00;2.00;;;;;14.16;55.30;101536.41;6271973;22;45588;-77
2022/05/13 05:31:28;;;;;;;;;4.50;3.00;;;;;14.16;55.91;101535.56;6271534;22;45807;-77
2022/05/13 05:33:53;;;;;;;;;3.25;3.00;;;;;14.10;55.95;101530.72;6271599;22;45818;-77
2022/05/13 05:36:19;;;;;;;;;2.75;2.00;;;;;14.05;55.54;101528.44;6271623;22;45667;-75
2022/05/13 05:42:08;;;;;;;;;2.00;2.00;;;;;14.08;55.76;101541.41;6271008;22;45878;-76
2022/05/13 05:44:33;;;;;;;;;2.50;2.00;;;;;14.05;55.75;101544.22;6271785;22;45495;-77
2022/05/13 05:46:58;;;;;;;;;3.50;2.00;;;;;14.03;56.08;101551.44;6271727;22;45691;-76
2022/05/13 05:49:24;;;;;;;;;4.00;2.00;;;;;14.03;56.19;101550.59;6271884;22;45523;-75
2022/05/13 05:51:49;;;;;;;;;2.00;2.00;;;;;14.04;56.50;101562.78;6271306;22;45619;-76
2022/05/13 05:57:17;;;;;;;;;3.75;2.00;;;;;14.03;57.18;101553.22;6270843;22;45571;-76
2022/05/13 05:59:44;;;;;;;;;2.00;1.25;;;;;14.08;57.05;101559.84;6270984;22;46064;-77
2022/05/13 06:02:10;;;;;;;;;2.00;1.50;;;;;14.07;56.72;101547.63;6270918;22;45428;-75
2022/05/13 06:04:36;;;;;;;;;3.00;3.00;;;;;14.12;56.56;101560.47;6270995;22;45548;-77
2022/05/13 06:07:04;;;;;;;;;2.25;2.00;;;;;14.13;56.32;101573.53;6271458;22;45716;-77
2022/05/13 06:09:30;;;;;;;;;4.25;3.00;;;;;14.07;56.97;101563.44;6242937;22;48003;-77
2022/05/13 06:11:58;;;;;;;;;2.50;2.00;;;;;14.08;57.29;101564.28;6271376;22;45619;-77
2022/05/13 06:14:23;;;;;;;;;3.00;2.00;;;;;14.08;57.21;101574.81;6271273;22;45864;-75
2022/05/13 06:16:49;;;;;;;;;3.00;3.00;;;;;14.04;57.40;101562.78;6242527;22;47208;-75
2022/05/13 06:19:15;;;;;;;;;2.50;2.00;;;;;14.07;57.09;101568.69;6270468;22;45890;-76
2022/05/13 06:21:43;;;;;;;;;3.25;2.00;;;;;14.06;57.22;101571.44;6270717;22;45734;-77
2022/05/13 06:27:32;;;;;;;;;3.75;3.75;;;;;14.12;56.86;101573.63;6271354;22;46004;-76
2022/05/13 06:29:57;;;;;;;;;2.00;2.00;;;;;14.16;57.28;101583.00;6271431;22;46277;-78
2022/05/13 06:32:23;;;;;;;;;2.00;2.00;;;;;14.20;56.74;101581.84;6271227;22;45731;-75
2022/05/13 06:34:48;;;;;;;;;4.00;3.50;;;;;14.27;56.61;101586.56;6271789;22;45519;-77
2022/05/13 06:43:57;;;;;;;;;3.00;2.75;;;;;14.29;56.42;101575.94;6270790;22;45609;-79
2022/05/13 06:46:26;;;;;;;;;2.00;1.75;;;;;14.35;56.05;101580.78;6271806;22;45626;-79
2022/05/13 06:48:52;;;;;;;;;2.00;2.00;;;;;14.43;56.00;101596.06;6271602;22;46908;-79
2022/05/13 06:51:17;;;;;;;;;2.00;2.00;;;;;14.53;55.86;101599.72;6270985;22;46195;-79
2022/05/13 06:53:43;;;;;;;;;2.50;2.00;;;;;14.56;55.62;101597.72;6271059;22;45772;-79
2022/05/13 06:56:08;;;;;;;;;2.50;1.50;;;;;14.55;55.02;101595.19;6270819;22;46042;-79
2022/05/13 06:58:35;;;;;;;;;2.50;2.00;;;;;14.49;55.00;101585.91;6271214;22;45567;-79
2022/05/13 07:01:02;;;;;;;;;2.00;2.00;;;;;14.51;54.91;101591.09;6243091;22;45926;-80
2022/05/13 07:03:36;;;;;;;;;3.00;1.50;;;;;14.61;54.69;101605.31;6244019;22;45521;-79
2022/05/13 07:06:02;;;;;;;;;2.00;2.00;;;;;14.64;54.88;101599.78;6272240;22;45621;-80
2022/05/13 07:08:27;;;;;;;;;2.00;2.00;;;;;14.54;54.61;101583.78;6271255;22;46834;-79
2022/05/13 07:10:53;;;;;;;;;1.00;1.00;;;;;14.68;54.10;101603.91;6271707;22;45552;-80
2022/05/13 07:13:18;;;;;;;;;2.00;1.25;;;;;14.69;53.65;101603.78;6243693;22;45545;-81
2022/05/13 07:15:45;;;;;;;;;0.00;0.00;;;;;14.70;53.37;101592.28;6271736;22;45789;-81
2022/05/13 07:18:11;;;;;;;;;0.75;0.75;;;;;14.69;53.13;101573.91;6243712;22;47375;-79
2022/05/13 07:20:39;;;;;;;;;1.00;0.50;;;;;14.75;53.16;101586.66;6271410;22;45473;-81
2022/05/13 07:23:05;;;;;;;;;2.75;1.00;;;;;14.98;52.59;101606.94;6243291;22;46137;-81
2022/05/13 07:25:33;;;;;;;;;0.00;0.00;;;;;15.05;52.35;101615.25;6271739;22;45643;-79
2022/05/13 07:28:00;;;;;;;;;0.25;0.25;;;;;15.11;52.39;101609.53;6243855;22;47563;-80
2022/05/13 07:30:25;;;;;;;;;0.00;0.00;;;;;15.09;51.70;101590.31;6272012;22;45851;-79
2022/05/13 07:32:54;;;;;;;;;1.00;1.00;;;;;15.18;51.70;101609.91;6270813;22;45477;-79
2022/05/13 07:35:19;;;;;;;;;0.75;0.00;;;;;15.25;51.43;101600.56;6271546;22;45657;-81
2022/05/13 07:43:50;;;;;;;;;1.00;0.00;;;;;15.35;49.52;101618.25;6270469;22;45571;-80
2022/05/13 07:46:16;;;;;;;;;0.00;0.00;;;;;15.41;48.96;101617.78;6242630;22;45410;-79
2022/05/13 07:48:42;;;;;;;;;1.00;1.00;;;;;15.44;49.05;101622.00;6242432;22;48534;-80
2022/05/13 07:51:08;;;;;;;;;1.00;0.25;;;;;15.50;48.67;101611.81;6270854;22;45835;-81
2022/05/13 07:53:35;;;;;;;;;0.75;0.75;;;;;15.52;48.72;101612.59;6269899;22;45632;-84
2022/05/13 07:59:20;;;;;;;;;1.00;0.00;;;;;15.62;48.46;101606.59;6063461;23;46078;-85
2022/05/13 08:01:45;;;;;;;;;0.00;0.00;;;;;15.73;48.27;101617.19;6112099;23;45926;-83
2022/05/13 08:04:12;;;;;;;;;1.75;1.00;;;;;15.71;48.08;101612.00;6119762;23;45752;-86
2022/05/13 08:07:07;;;;;;;;;1.00;1.00;;;;;15.82;48.02;101612.03;6116375;23;45902;-84
2022/05/13 08:09:33;;;;;;;;;1.00;1.00;;;;;15.83;48.60;101610.22;6091231;23;47553;-84
2022/05/13 08:12:06;;;;;;;;;1.00;1.00;;;;;15.91;48.37;101610.50;6117056;23;45627;-82
2022/05/13 08:14:31;;;;;;;;;1.25;0.00;;;;;15.81;47.06;101588.38;6116844;23;45748;-84
2022/05/13 08:16:57;;;;;;;;;0.00;0.00;;;;;15.82;47.54;101596.16;6117692;23;45724;-83
2022/05/13 08:19:22;;;;;;;;;1.00;0.75;;;;;15.88;47.81;101603.63;6116673;23;45591;-84
2022/05/13 08:21:48;;;;;;;;;1.00;0.25;;;;;16.02;47.46;101622.88;6090383;23;47027;-84
2022/05/13 08:24:22;;;;;;;;;1.00;0.00;;;;;15.86;47.16;101597.63;6116270;23;45603;-82
2022/05/13 08:26:47;;;;;;;;;0.25;0.25;;;;;15.95;47.45;101615.41;6116678;23;45759;-84
2022/05/13 08:29:13;;;;;;;;;1.00;0.25;;;;;15.97;47.79;101606.53;6090993;23;47267;-83
2022/05/13 08:31:38;;;;;;;;;0.00;0.00;;;;;15.96;48.08;101597.75;6090868;23;46644;-80
2022/05/13 08:34:04;;;;;;;;;1.00;0.75;;;;;15.99;47.94;101599.31;6118300;23;45615;-83
2022/05/13 08:36:29;;;;;;;;;0.25;0.25;;;;;16.07;48.02;101604.84;6268888;22;45749;-80
2022/05/13 08:38:55;;;;;;;;;0.75;0.75;;;;;16.12;48.04;101619.41;6272445;22;45741;-83
2022/05/13 08:41:37;;;;;;;;;0.25;0.25;;;;;16.21;47.90;101631.03;6244725;22;47885;-83
2022/05/13 08:44:07;;;;;;;;;0.50;0.00;;;;;16.24;46.83;101622.88;6244889;22;45611;-80
2022/05/13 08:46:39;;;;;;;;;1.00;1.00;;;;;16.12;47.45;101595.59;6272771;22;45635;-81
2022/05/13 08:49:08;;;;;;;;;1.00;0.75;;;;;16.28;47.70;101621.69;6273711;22;46380;-77
2022/05/13 08:51:42;;;;;;;;;1.00;1.00;;;;;16.27;46.57;101614.69;6272959;22;45799;-77
2022/05/13 08:54:17;;;;;;;;;0.25;0.25;;;;;16.32;46.54;101626.59;6271185;22;45693;-77
2022/05/13 08:56:59;;;;;;;;;0.00;0.00;;;;;16.29;45.93;101615.44;6271591;22;45641;-77
2022/05/13 08:59:49;;;;;;;;;0.00;0.00;;;;;16.27;45.71;101615.53;6271731;22;46475;-76
2022/05/13 09:02:35;;;;;;;;;0.75;0.75;;;;;16.37;45.55;101626.22;6271583;22;46151;-77
2022/05/13 09:05:06;;;;;;;;;1.00;0.25;;;;;16.39;45.86;101626.97;6272200;22;45476;-77
2022/05/13 09:07:31;;;;;;;;;1.00;1.00;;;;;16.42;45.54;101617.94;6244561;22;45544;-78
2022/05/13 09:10:03;;;;;;;;;0.75;0.00;;;;;16.41;45.54;101613.63;6273134;22;45657;-78
2022/05/13 09:12:34;;;;;;;;;0.50;0.50;;;;;16.52;45.19;101618.91;6273812;22;45794;-77
2022/05/13 09:15:09;;;;;;;;;1.00;1.00;;;;;16.54;45.19;101616.97;6272716;22;45618;-77
2022/05/13 09:17:59;;;;;;;;;0.00;0.00;;;;;16.62;45.40;101619.88;6244228;22;45560;-77
2022/05/13 09:20:25;;;;;;;;;1.00;1.00;;;;;16.64;45.50;101615.28;6272146;22;46560;-76
2022/05/13 09:22:58;;;;;;;;;1.50;1.00;;;;;16.64;44.97;101612.63;6272269;22;46083;-75
2022/05/13 09:25:29;;;;;;;;;0.00;0.00;;;;;16.71;44.33;101625.25;6272294;22;45575;-77
2022/05/13 09:28:01;;;;;;;;;1.00;1.00;;;;;16.69;44.05;101615.75;6272194;22;45861;-76
2022/05/13 09:30:44;;;;;;;;;1.75;1.00;;;;;16.81;44.04;101613.94;6243672;22;47537;-77
2022/05/13 09:33:24;;;;;;;;;0.00;0.00;;;;;16.85;43.71;101616.19;6271374;22;46672;-77
2022/05/13 09:35:56;;;;;;;;;1.00;1.00;;;;;16.77;44.15;101586.88;6271265;22;45515;-76
2022/05/13 09:38:24;;;;;;;;;1.50;1.50;;;;;16.96;43.78;101612.66;6270721;22;45703;-76
2022/05/13 09:40:59;;;;;;;;;0.00;0.00;;;;;16.98;43.77;101613.41;6242336;22;48146;-75
2022/05/13 09:43:39;;;;;;;;;1.75;1.00;;;;;16.99;42.89;101609.78;6243060;22;47169;-76
2022/05/13 09:46:11;;;;;;;;;1.00;1.00;;;;;17.00;42.83;101625.56;6271483;22;45654;-76
2022/05/13 09:48:54;;;;;;;;;1.00;1.00;;;;;17.03;42.88;101613.84;6271029;22;45785;-77
2022/05/13 09:51:27;;;;;;;;;1.75;0.25;;;;;17.05;42.97;101618.06;6270692;22;45975;-76
2022/05/13 09:57:21;;;;;;;;;0.75;0.25;;;;;17.10;42.22;101597.34;6266514;22;45639;-76
2022/05/13 09:59:55;;;;;;;;;0.00;0.00;;;;;17.16;41.93;101609.25;6272076;22;45591;-77
2022/05/13 10:02:29;;;;;;;;;0.00;0.00;;;;;17.23;41.79;101613.06;6271211;22;45728;-76
2022/05/13 10:05:10;;;;;;;;;0.50;0.00;;;;;17.21;41.45;101596.47;6271708;22;46059;-76
2022/05/13 10:08:01;;;;;;;;;0.00;0.00;;;;;17.24;41.11;101590.91;6271293;22;45934;-77
2022/05/13 10:14:00;;;;;;;;;0.50;0.50;;;;;17.35;40.73;101603.25;6087353;23;45600;-78
2022/05/13 10:16:34;;;;;;;;;0.50;0.25;;;;;17.41;40.75;101605.38;6062957;23;46327;-76
2022/05/13 10:19:08;;;;;;;;;3.00;2.00;;;;;17.44;41.03;101598.00;6088484;23;45787;-85
2022/05/13 10:21:45;;;;;;;;;1.00;1.00;;;;;17.51;41.10;101596.53;6093307;23;45739;-84
2022/05/13 10:24:37;;;;;;;;;1.00;1.00;;;;;17.56;40.39;101596.97;6091419;23;46604;-79
2022/05/13 10:27:05;;;;;;;;;1.00;1.00;;;;;17.53;40.49;101586.66;6092387;23;45926;-81
2022/05/13 10:29:46;;;;;;;;;1.00;1.00;;;;;17.59;40.56;101594.13;6088579;23;45680;-82
2022/05/13 10:32:24;;;;;;;;;1.00;0.50;;;;;17.65;40.63;101587.47;6065452;23;45749;-82
2022/05/13 10:34:54;;;;;;;;;0.50;0.50;;;;;17.67;40.62;101585.50;6090173;23;46567;-81
2022/05/13 10:37:24;;;;;;;;;0.00;0.00;;;;;17.69;40.35;101580.91;6090546;23;46002;-81
2022/05/13 10:39:58;;;;;;;;;0.75;0.75;;;;;17.67;40.40;101568.75;6092345;23;45552;-83
2022/05/13 10:42:48;;;;;;;;;1.00;1.00;;;;;17.80;40.26;101588.78;6091334;23;45576;-80
2022/05/13 10:45:24;;;;;;;;;1.00;1.00;;;;;17.81;40.48;101574.56;6090202;23;46519;-80
2022/05/13 10:47:55;;;;;;;;;2.50;1.00;;;;;17.89;39.97;101579.19;6200363;22;45756;-82
2022/05/13 10:50:24;;;;;;;;;0.50;0.50;;;;;17.87;40.17;101568.72;6277501;22;45544;-81
2022/05/13 10:53:03;;;;;;;;;1.00;1.00;;;;;17.98;39.75;101581.03;6273656;22;45640;-82
2022/05/13 10:56:17;;;;;;;;;1.75;1.00;;;;;17.98;39.53;101576.59;6270795;22;45607;-81
2022/05/13 10:59:10;;;;;;;;;2.50;1.25;;;;;18.01;40.18;101565.72;6091766;23;47525;-81
2022/05/13 11:02:07;;;;;;;;;1.75;1.00;;;;;18.06;39.63;101578.59;6117015;23;45678;-83
2022/05/13 11:04:53;;;;;;;;;2.00;1.00;;;;;18.05;39.77;101561.00;6117326;23;45761;-82
2022/05/13 11:07:49;;;;;;;;;1.00;1.00;;;;;18.14;40.19;101572.63;6117127;23;46555;-82
2022/05/13 11:14:05;;;;;;;;;1.00;1.00;;;;;18.24;40.16;101566.38;6116689;23;45705;-85
2022/05/13 11:17:02;;;;;;;;;1.00;1.00;;;;;18.24;40.12;101558.41;6058771;23;45625;-85
2022/05/13 11:19:38;;;;;;;;;1.75;1.00;;;;;18.28;40.06;101543.06;6057985;23;46433;-83
2022/05/13 11:22:25;;;;;;;;;0.50;0.50;;;;;18.41;39.63;101560.41;6057595;23;45957;-83
2022/05/13 11:27:56;;;;;;;;;1.00;0.00;;;;;18.48;39.77;101558.03;6058463;23;45590;-84
2022/05/13 11:30:47;;;;;;;;;3.50;1.50;;;;;18.50;39.70;101553.44;6033612;23;46495;-84
2022/05/13 11:33:38;;;;;;;;;1.00;1.00;;;;;18.55;39.93;101553.06;6058100;23;46274;-83
2022/05/13 11:36:13;;;;;;;;;1.00;1.00;;;;;18.57;39.63;101546.63;6161365;23;45658;-83
2022/05/13 11:38:56;;;;;;;;;2.00;1.00;;;;;18.61;40.01;101548.06;6177309;23;45677;-84
2022/05/13 11:41:23;;;;;;;;;1.50;1.00;;;;;18.59;40.02;101544.69;6176500;23;45823;-81
2022/05/13 11:44:00;;;;;;;;;2.00;2.00;;;;;18.66;39.47;101548.47;6177144;23;46310;-81
2022/05/13 11:46:45;;;;;;;;;2.00;1.00;;;;;18.71;40.21;101548.06;6177084;23;45772;-82
2022/05/13 11:49:21;;;;;;;;;1.00;0.00;;;;;18.77;39.80;101547.50;6177676;23;46061;-83
2022/05/13 11:51:46;;;;;;;;;1.75;1.75;;;;;18.80;39.09;101547.22;6177114;23;46446;-84
2022/05/13 11:57:46;;;;;;;;;1.00;1.00;;;;;18.89;39.54;101540.25;6268255;22;45742;-82
2022/05/13 12:00:41;;;;;;;;;1.00;1.00;;;;;18.95;38.81;101548.47;6271206;22;45500;-80
2022/05/13 12:03:09;;;;;;;;;1.00;1.00;;;;;18.98;38.93;101540.25;6270752;22;45595;-80
2022/05/13 12:05:48;;;;;;;;;1.00;1.00;;;;;19.04;38.58;101536.19;6270936;22;45777;-80
2022/05/13 12:08:37;;;;;;;;;1.00;1.00;;;;;19.09;38.81;101539.25;6269777;22;45580;-81
2022/05/13 12:14:40;;;;;;;;;2.00;1.00;;;;;19.18;38.60;101533.91;6270398;22;45939;-80
2022/05/13 12:17:18;;;;;;;;;1.00;1.00;;;;;19.24;38.98;101527.19;6270631;22;45769;-80
2022/05/13 12:20:03;;;;;;;;;2.00;1.00;;;;;19.33;39.25;101533.47;6270508;22;45731;-80
2022/05/13 12:22:29;;;;;;;;;1.00;1.00;;;;;19.38;38.87;101528.59;6242709;22;45473;-78
2022/05/13 12:25:09;;;;;;;;;1.00;1.00;;;;;19.43;38.43;101521.03;6270576;22;46496;-76
2022/05/13 12:27:38;;;;;;;;;2.00;1.00;;;;;19.38;38.03;101502.81;6271268;22;45883;-77
2022/05/13 12:30:29;;;;;;;;;1.25;1.00;;;;;19.48;37.43;101514.31;6271237;22;45499;-78
2022/05/13 12:32:57;;;;;;;;;2.00;1.00;;;;;19.45;37.60;101506.63;6249058;22;45514;-79
2022/05/13 12:38:23;;;;;;;;;2.00;1.00;;;;;19.55;37.59;101502.09;6270629;22;45724;-77
2022/05/13 12:41:21;;;;;;;;;1.25;1.00;;;;;19.67;37.11;101502.78;6271626;22;45539;-79
2022/05/13 12:44:08;;;;;;;;;0.50;0.50;;;;;19.73;37.52;101496.88;6271041;22;45615;-81
2022/05/13 12:46:46;;;;;;;;;1.00;1.00;;;;;19.70;37.04;101486.53;6272691;22;46539;-79
2022/05/13 12:49:27;;;;;;;;;1.00;1.00;;;;;19.80;37.30;101483.84;6272202;22;46225;-82
2022/05/13 12:52:04;;;;;;;;;2.00;1.75;;;;;19.94;37.45;101500.13;6271648;22;45608;-80
2022/05/13 12:57:42;;;;;;;;;0.00;0.00;;;;;19.97;36.77;101497.16;6270439;22;46120;-84
2022/05/13 13:00:13;;;;;;;;;1.00;1.00;;;;;19.86;36.81;101485.91;6271940;22;46473;-81
2022/05/13 13:02:42;;;;;;;;;2.50;1.00;;;;;19.93;36.86;101489.63;6242941;22;46243;-81
2022/05/13 13:05:17;;;;;;;;;1.75;1.75;;;;;19.88;36.97;101476.78;6242536;22;45504;-80
2022/05/13 13:07:43;;;;;;;;;1.00;0.00;;;;;19.98;37.05;101484.69;6271144;22;46487;-83
2022/05/13 13:13:55;;;;;;;;;2.00;1.50;;;;;20.03;37.07;101477.09;6270918;22;45689;-80
2022/05/13 13:16:42;;;;;;;;;1.00;0.25;;;;;20.10;36.75;101476.38;6271074;22;45645;-77